sensor_id;sensor_type;location;lat;lon;timestamp;pressure;altitude;pressure_sealevel;temperature;humidity
23363;BME280;11853;48.080;11.960;2023-01-26T00:01:19;95120.19;;;1.10;100.00
23363;BME280;11853;48.080;11.960;2023-01-26T00:03:45;95113.00;;;1.14;100.00
23363;BME280;11853;48.080;11.960;2023-01-26T00:06:13;95115.34;;;1.19;100.00
23363;BME280;11853;48.080;11.960;2023-01-26T00:08:41;95120.75;;;1.16;100.00
23363;BME280;11853;48.080;11.960;2023-01-26T00:11:10;95117.22;;;1.17;100.00
23363;BME280;11853;48.080;11.960;2023-01-26T00:13:36;95112.16;;;1.13;100.00
23363;BME280;11853;48.080;11.960;2023-01-26T00:16:03;95113.00;;;1.14;100.00
23363;BME280;11853;48.080;11.960;2023-01-26T00:18:30;95119.06;;;1.00;100.00
23363;BME280;11853;48.080;11.960;2023-01-26T00:21:00;95111.06;;;0.87;100.00
23363;BME280;11853;48.080;11.960;2023-01-26T00:23:28;95104.38;;;0.67;100.00
23363;BME280;11853;48.080;11.960;2023-01-26T00:25:54;95101.09;;;0.64;100.00
23363;BME280;11853;48.080;11.960;2023-01-26T00:28:20;95109.69;;;0.66;100.00
23363;BME280;11853;48.080;11.960;2023-01-26T00:30:46;95111.66;;;0.77;100.00
23363;BME280;11853;48.080;11.960;2023-01-26T00:33:12;95102.53;;;0.70;100.00
23363;BME280;11853;48.080;11.960;2023-01-26T00:35:38;95103.53;;;0.51;100.00
23363;BME280;11853;48.080;11.960;2023-01-26T00:38:04;95101.50;;;0.56;100.00
23363;BME280;11853;48.080;11.960;2023-01-26T00:40:30;95094.59;;;0.71;100.00
23363;BME280;11853;48.080;11.960;2023-01-26T00:42:55;95090.22;;;0.72;100.00
23363;BME280;11853;48.080;11.960;2023-01-26T00:45:23;95089.06;;;0.61;100.00
23363;BME280;11853;48.080;11.960;2023-01-26T00:47:49;95089.28;;;0.73;100.00
23363;BME280;11853;48.080;11.960;2023-01-26T00:50:15;95091.91;;;0.73;100.00
23363;BME280;11853;48.080;11.960;2023-01-26T00:52:40;95093.75;;;0.71;100.00
23363;BME280;11853;48.080;11.960;2023-01-26T00:55:06;95086.50;;;0.60;100.00
23363;BME280;11853;48.080;11.960;2023-01-26T00:57:32;95085.59;;;0.61;100.00
23363;BME280;11853;48.080;11.960;2023-01-26T00:59:58;95094.63;;;0.55;100.00
23363;BME280;11853;48.080;11.960;2023-01-26T01:02:24;95090.06;;;0.75;100.00
23363;BME280;11853;48.080;11.960;2023-01-26T01:04:49;95090.13;;;0.73;100.00
23363;BME280;11853;48.080;11.960;2023-01-26T01:07:15;95079.19;;;0.66;100.00
23363;BME280;11853;48.080;11.960;2023-01-26T01:09:41;95072.88;;;0.71;100.00
23363;BME280;11853;48.080;11.960;2023-01-26T01:12:06;95080.81;;;0.69;100.00
23363;BME280;11853;48.080;11.960;2023-01-26T01:14:32;95073.09;;;0.82;100.00
23363;BME280;11853;48.080;11.960;2023-01-26T01:16:58;95068.44;;;0.87;100.00
23363;BME280;11853;48.080;11.960;2023-01-26T01:19:24;95080.03;;;0.97;100.00
23363;BME280;11853;48.080;11.960;2023-01-26T01:21:49;95081.41;;;0.88;100.00
23363;BME280;11853;48.080;11.960;2023-01-26T01:24:15;95089.50;;;0.84;100.00
23363;BME280;11853;48.080;11.960;2023-01-26T01:26:41;95088.44;;;0.72;100.00
23363;BME280;11853;48.080;11.960;2023-01-26T01:29:06;95086.84;;;0.70;100.00
23363;BME280;11853;48.080;11.960;2023-01-26T01:31:32;95089.28;;;0.73;100.00
23363;BME280;11853;48.080;11.960;2023-01-26T01:33:58;95088.34;;;0.74;100.00
23363;BME280;11853;48.080;11.960;2023-01-26T01:36:24;95085.25;;;0.67;100.00
23363;BME280;11853;48.080;11.960;2023-01-26T01:38:50;95081.81;;;0.66;100.00
23363;BME280;11853;48.080;11.960;2023-01-26T01:41:18;95079.03;;;0.70;100.00
23363;BME280;11853;48.080;11.960;2023-01-26T01:43:44;95083.72;;;0.79;100.00
23363;BME280;11853;48.080;11.960;2023-01-26T01:49:02;95069.28;;;0.87;100.00
23363;BME280;11853;48.080;11.960;2023-01-26T01:51:36;95073.56;;;0.88;100.00
23363;BME280;11853;48.080;11.960;2023-01-26T01:54:09;95072.38;;;0.94;100.00
23363;BME280;11853;48.080;11.960;2023-01-26T01:56:36;95076.50;;;0.98;100.00
23363;BME280;11853;48.080;11.960;2023-01-26T01:59:05;95069.75;;;0.94;100.00
23363;BME280;11853;48.080;11.960;2023-01-26T02:01:32;95060.25;;;0.93;100.00
23363;BME280;11853;48.080;11.960;2023-01-26T02:04:00;95064.28;;;0.99;100.00
23363;BME280;11853;48.080;11.960;2023-01-26T02:06:37;95066.81;;;1.00;100.00
23363;BME280;11853;48.080;11.960;2023-01-26T02:09:06;95069.44;;;1.00;100.00
23363;BME280;11853;48.080;11.960;2023-01-26T02:11:39;95064.03;;;1.03;100.00
23363;BME280;11853;48.080;11.960;2023-01-26T02:14:07;95066.63;;;1.03;100.00
23363;BME280;11853;48.080;11.960;2023-01-26T02:16:34;95061.22;;;1.06;100.00
23363;BME280;11853;48.080;11.960;2023-01-26T02:19:00;95061.13;;;1.08;100.00
23363;BME280;11853;48.080;11.960;2023-01-26T02:21:25;95064.75;;;1.05;100.00
23363;BME280;11853;48.080;11.960;2023-01-26T02:24:11;95060.44;;;0.90;100.00
23363;BME280;11853;48.080;11.960;2023-01-26T02:26:53;95061.19;;;0.92;100.00
23363;BME280;11853;48.080;11.960;2023-01-26T02:29:22;95054.28;;;0.91;100.00
23363;BME280;11853;48.080;11.960;2023-01-26T02:31:47;95053.25;;;0.94;100.00
23363;BME280;11853;48.080;11.960;2023-01-26T02:34:14;95047.00;;;0.96;100.00
23363;BME280;11853;48.080;11.960;2023-01-26T02:36:40;95041.34;;;1.04;100.00
23363;BME280;11853;48.080;11.960;2023-01-26T02:39:22;95045.56;;;1.06;100.00
23363;BME280;11853;48.080;11.960;2023-01-26T02:41:52;95039.00;;;0.99;100.00
23363;BME280;11853;48.080;11.960;2023-01-26T02:44:40;95036.09;;;0.89;100.00
23363;BME280;11853;48.080;11.960;2023-01-26T02:47:15;95023.13;;;0.88;100.00
23363;BME280;11853;48.080;11.960;2023-01-26T02:49:42;95025.53;;;0.91;100.00
23363;BME280;11853;48.080;11.960;2023-01-26T02:52:25;95023.31;;;0.99;100.00
23363;BME280;11853;48.080;11.960;2023-01-26T02:54:51;95020.53;;;1.02;100.00
23363;BME280;11853;48.080;11.960;2023-01-26T02:57:36;95004.69;;;1.05;100.00
23363;BME280;11853;48.080;11.960;2023-01-26T03:00:12;95017.19;;;1.00;100.00
23363;BME280;11853;48.080;11.960;2023-01-26T03:02:39;95007.09;;;0.94;100.00
23363;BME280;11853;48.080;11.960;2023-01-26T03:05:06;95002.72;;;0.95;100.00
23363;BME280;11853;48.080;11.960;2023-01-26T03:07:31;95006.25;;;0.94;100.00
23363;BME280;11853;48.080;11.960;2023-01-26T03:09:57;95000.00;;;0.96;100.00
23363;BME280;11853;48.080;11.960;2023-01-26T03:12:26;95002.03;;;0.91;100.00
23363;BME280;11853;48.080;11.960;2023-01-26T03:14:52;94999.34;;;0.93;100.00
23363;BME280;11853;48.080;11.960;2023-01-26T03:17:37;94995.34;;;0.87;100.00
23363;BME280;11853;48.080;11.960;2023-01-26T03:20:03;94991.41;;;0.80;100.00
23363;BME280;11853;48.080;11.960;2023-01-26T03:22:47;94997.63;;;0.77;100.00
23363;BME280;11853;48.080;11.960;2023-01-26T03:25:31;94990.66;;;0.78;100.00
23363;BME280;11853;48.080;11.960;2023-01-26T03:28:15;94996.22;;;0.57;100.00
23363;BME280;11853;48.080;11.960;2023-01-26T03:30:51;94993.94;;;0.51;100.00
23363;BME280;11853;48.080;11.960;2023-01-26T03:33:18;94998.97;;;0.54;100.00
23363;BME280;11853;48.080;11.960;2023-01-26T03:35:44;95000.13;;;0.64;100.00
23363;BME280;11853;48.080;11.960;2023-01-26T03:38:10;94991.88;;;0.72;100.00
23363;BME280;11853;48.080;11.960;2023-01-26T03:40:36;94999.22;;;0.80;100.00
23363;BME280;11853;48.080;11.960;2023-01-26T03:43:20;94997.00;;;0.88;100.00
23363;BME280;11853;48.080;11.960;2023-01-26T03:46:05;94991.78;;;0.88;100.00
23363;BME280;11853;48.080;11.960;2023-01-26T03:48:49;94993.47;;;0.89;100.00
23363;BME280;11853;48.080;11.960;2023-01-26T03:51:33;94993.47;;;0.89;100.00
23363;BME280;11853;48.080;11.960;2023-01-26T03:54:17;94995.91;;;0.92;100.00
23363;BME280;11853;48.080;11.960;2023-01-26T03:57:01;94990.94;;;0.87;100.00
23363;BME280;11853;48.080;11.960;2023-01-26T03:59:27;94990.66;;;0.78;100.00
23363;BME280;11853;48.080;11.960;2023-01-26T04:02:09;94996.06;;;0.75;100.00
23363;BME280;11853;48.080;11.960;2023-01-26T04:04:54;94989.53;;;0.37;100.00
23363;BME280;11853;48.080;11.960;2023-01-26T04:07:38;94995.66;;;0.36;100.00
23363;BME280;11853;48.080;11.960;2023-01-26T04:10:23;94989.59;;;0.36;100.00
23363;BME280;11853;48.080;11.960;2023-01-26T04:12:49;94992.44;;;0.47;100.00
23363;BME280;11853;48.080;11.960;2023-01-26T04:15:35;94988.03;;;0.63;100.00
23363;BME280;11853;48.080;11.960;2023-01-26T04:18:19;94983.75;;;0.77;100.00
23363;BME280;11853;48.080;11.960;2023-01-26T04:21:04;94987.66;;;0.70;100.00
23363;BME280;11853;48.080;11.960;2023-01-26T04:24:02;94984.91;;;0.87;100.00
23363;BME280;11853;48.080;11.960;2023-01-26T04:26:34;94981.06;;;0.93;100.00
23363;BME280;11853;48.080;11.960;2023-01-26T04:29:06;94975.41;;;1.00;100.00
23363;BME280;11853;48.080;11.960;2023-01-26T04:31:32;94970.44;;;0.96;100.00
23363;BME280;11853;48.080;11.960;2023-01-26T04:34:03;94971.47;;;0.93;100.00
23363;BME280;11853;48.080;11.960;2023-01-26T04:36:30;94976.88;;;0.90;100.00
23363;BME280;11853;48.080;11.960;2023-01-26T04:38:56;94972.22;;;0.95;100.00
23363;BME280;11853;48.080;11.960;2023-01-26T04:41:21;94971.09;;;0.99;100.00
23363;BME280;11853;48.080;11.960;2023-01-26T04:43:47;94969.63;;;0.95;100.00
23363;BME280;11853;48.080;11.960;2023-01-26T04:46:13;94965.97;;;0.98;100.00
23363;BME280;11853;48.080;11.960;2023-01-26T04:48:40;94965.88;;;0.99;100.00
23363;BME280;11853;48.080;11.960;2023-01-26T04:51:13;94960.00;;;1.10;100.00
23363;BME280;11853;48.080;11.960;2023-01-26T04:53:39;94964.22;;;1.12;100.00
23363;BME280;11853;48.080;11.960;2023-01-26T04:56:05;94961.97;;;0.92;100.00
23363;BME280;11853;48.080;11.960;2023-01-26T04:58:33;94960.84;;;0.96;100.00
23363;BME280;11853;48.080;11.960;2023-01-26T05:00:59;94971.84;;;1.01;100.00
23363;BME280;11853;48.080;11.960;2023-01-26T05:03:25;94969.13;;;1.03;100.00
23363;BME280;11853;48.080;11.960;2023-01-26T05:05:53;94965.50;;;1.05;100.00
23363;BME280;11853;48.080;11.960;2023-01-26T05:08:20;94971.41;;;1.09;100.00
23363;BME280;11853;48.080;11.960;2023-01-26T05:10:46;94970.53;;;1.08;100.00
23363;BME280;11853;48.080;11.960;2023-01-26T05:13:12;94975.03;;;1.06;100.00
23363;BME280;11853;48.080;11.960;2023-01-26T05:15:38;94972.97;;;1.11;100.00
23363;BME280;11853;48.080;11.960;2023-01-26T05:18:05;94972.81;;;1.15;100.00
23363;BME280;11853;48.080;11.960;2023-01-26T05:20:31;94967.84;;;1.10;100.00
23363;BME280;11853;48.080;11.960;2023-01-26T05:22:58;94955.63;;;1.10;100.00
23363;BME280;11853;48.080;11.960;2023-01-26T05:25:24;94964.09;;;1.14;100.00
23363;BME280;11853;48.080;11.960;2023-01-26T05:27:49;94962.69;;;1.08;100.00
23363;BME280;11853;48.080;11.960;2023-01-26T05:30:24;94959.56;;;1.03;100.00
23363;BME280;11853;48.080;11.960;2023-01-26T05:32:50;94964.97;;;1.00;100.00
23363;BME280;11853;48.080;11.960;2023-01-26T05:35:16;94963.84;;;1.04;100.00
23363;BME280;11853;48.080;11.960;2023-01-26T05:37:41;94960.56;;;1.01;100.00
23363;BME280;11853;48.080;11.960;2023-01-26T05:40:11;94964.97;;;1.00;100.00
23363;BME280;11853;48.080;11.960;2023-01-26T05:42:37;94963.66;;;1.07;100.00
23363;BME280;11853;48.080;11.960;2023-01-26T05:45:03;94964.09;;;1.00;100.00
23363;BME280;11853;48.080;11.960;2023-01-26T05:47:32;94957.59;;;1.07;100.00
23363;BME280;11853;48.080;11.960;2023-01-26T05:49:58;94955.63;;;1.10;100.00
23363;BME280;11853;48.080;11.960;2023-01-26T05:52:23;94956.19;;;1.16;100.00
23363;BME280;11853;48.080;11.960;2023-01-26T05:54:49;94956.56;;;1.09;100.00
23363;BME280;11853;48.080;11.960;2023-01-26T05:57:15;94958.41;;;1.07;100.00
23363;BME280;11853;48.080;11.960;2023-01-26T05:59:41;94967.00;;;0.95;100.00
23363;BME280;11853;48.080;11.960;2023-01-26T06:02:10;94972.41;;;0.92;100.00
23363;BME280;11853;48.080;11.960;2023-01-26T06:04:37;94972.22;;;0.95;100.00
23363;BME280;11853;48.080;11.960;2023-01-26T06:07:02;94975.41;;;1.00;100.00
23363;BME280;11853;48.080;11.960;2023-01-26T06:09:28;94983.06;;;1.03;100.00
23363;BME280;11853;48.080;11.960;2023-01-26T06:11:54;94983.69;;;1.07;100.00
23363;BME280;11853;48.080;11.960;2023-01-26T06:14:20;94982.88;;;1.06;100.00
23363;BME280;11853;48.080;11.960;2023-01-26T06:16:46;94986.22;;;1.08;100.00
23363;BME280;11853;48.080;11.960;2023-01-26T06:19:12;94980.06;;;1.09;100.00
23363;BME280;11853;48.080;11.960;2023-01-26T06:21:38;94978.09;;;1.13;100.00
23363;BME280;11853;48.080;11.960;2023-01-26T06:24:04;94983.59;;;1.08;100.00
23363;BME280;11853;48.080;11.960;2023-01-26T06:26:30;94979.41;;;1.06;100.00
23363;BME280;11853;48.080;11.960;2023-01-26T06:28:56;94979.88;;;1.12;100.00
23363;BME280;11853;48.080;11.960;2023-01-26T06:31:22;94979.06;;;1.12;100.00
23363;BME280;11853;48.080;11.960;2023-01-26T06:33:49;94979.06;;;1.12;100.00
23363;BME280;11853;48.080;11.960;2023-01-26T06:36:15;94966.00;;;1.12;100.00
23363;BME280;11853;48.080;11.960;2023-01-26T06:38:46;94971.09;;;1.13;100.00
23363;BME280;11853;48.080;11.960;2023-01-26T06:41:15;94964.22;;;1.12;100.00
23363;BME280;11853;48.080;11.960;2023-01-26T06:43:45;94960.47;;;1.17;100.00
23363;BME280;11853;48.080;11.960;2023-01-26T06:46:11;94962.16;;;1.18;100.00
23363;BME280;11853;48.080;11.960;2023-01-26T06:48:37;94962.88;;;1.20;100.00
23363;BME280;11853;48.080;11.960;2023-01-26T06:53:57;94954.13;;;1.06;100.00
23363;BME280;11853;48.080;11.960;2023-01-26T06:56:26;94955.81;;;1.07;100.00
23363;BME280;11853;48.080;11.960;2023-01-26T06:58:55;94953.47;;;1.03;100.00
23363;BME280;11853;48.080;11.960;2023-01-26T07:01:24;94959.44;;;1.05;100.00
23363;BME280;11853;48.080;11.960;2023-01-26T07:03:53;94955.16;;;1.04;100.00
23363;BME280;11853;48.080;11.960;2023-01-26T07:06:20;94954.66;;;0.97;100.00
23363;BME280;11853;48.080;11.960;2023-01-26T07:08:48;94964.09;;;1.00;100.00
23363;BME280;11853;48.080;11.960;2023-01-26T07:11:14;94963.72;;;1.06;100.00
23363;BME280;11853;48.080;11.960;2023-01-26T07:13:41;94966.31;;;0.92;100.00
23363;BME280;11853;48.080;11.960;2023-01-26T07:16:09;94960.44;;;0.88;100.00
23363;BME280;11853;48.080;11.960;2023-01-26T07:18:36;94965.69;;;0.88;100.00
23363;BME280;11853;48.080;11.960;2023-01-26T07:21:10;94961.97;;;0.92;100.00
23363;BME280;11853;48.080;11.960;2023-01-26T07:23:36;94967.00;;;0.95;100.00
23363;BME280;11853;48.080;11.960;2023-01-26T07:26:01;94963.38;;;0.98;100.00
23363;BME280;11853;48.080;11.960;2023-01-26T07:28:27;94958.97;;;0.98;100.00
23363;BME280;11853;48.080;11.960;2023-01-26T07:30:57;94952.94;;;1.12;100.00
23363;BME280;11853;48.080;11.960;2023-01-26T07:33:23;94956.06;;;1.17;100.00
23363;BME280;11853;48.080;11.960;2023-01-26T07:35:52;94962.69;;;1.08;100.00
23363;BME280;11853;48.080;11.960;2023-01-26T07:38:21;94955.16;;;1.04;100.00
23363;BME280;11853;48.080;11.960;2023-01-26T07:40:47;94959.38;;;1.21;100.00
23363;BME280;11853;48.080;11.960;2023-01-26T07:43:14;94957.41;;;1.24;100.00
23363;BME280;11853;48.080;11.960;2023-01-26T07:45:46;94953.56;;;1.30;100.00
23363;BME280;11853;48.080;11.960;2023-01-26T07:48:12;94946.19;;;1.22;100.00
23363;BME280;11853;48.080;11.960;2023-01-26T07:50:39;94956.56;;;1.24;100.00
23363;BME280;11853;48.080;11.960;2023-01-26T07:53:05;94950.66;;;1.20;100.00
23363;BME280;11853;48.080;11.960;2023-01-26T07:55:34;94945.91;;;1.27;100.00
23363;BME280;11853;48.080;11.960;2023-01-26T07:58:17;94949.09;;;1.32;100.00
23363;BME280;11853;48.080;11.960;2023-01-26T08:00:43;94952.81;;;1.28;100.00
23363;BME280;11853;48.080;11.960;2023-01-26T08:03:12;94950.59;;;1.22;100.00
23363;BME280;11853;48.080;11.960;2023-01-26T08:05:38;94950.66;;;1.20;100.00
23363;BME280;11853;48.080;11.960;2023-01-26T08:08:07;94959.38;;;1.21;100.00
23363;BME280;11853;48.080;11.960;2023-01-26T08:10:33;94946.19;;;1.22;100.00
23363;BME280;11853;48.080;11.960;2023-01-26T08:13:00;94951.16;;;1.27;100.00
23363;BME280;11853;48.080;11.960;2023-01-26T08:15:27;94945.09;;;1.12;100.00
23363;BME280;11853;48.080;11.960;2023-01-26T08:17:53;94941.91;;;1.21;100.00
23363;BME280;11853;48.080;11.960;2023-01-26T08:20:19;94945.91;;;1.27;100.00
23363;BME280;11853;48.080;11.960;2023-01-26T08:22:44;94943.13;;;1.30;100.00
23363;BME280;11853;48.080;11.960;2023-01-26T08:25:13;94945.09;;;1.26;100.00
23363;BME280;11853;48.080;11.960;2023-01-26T08:27:38;94926.31;;;1.34;100.00
23363;BME280;11853;48.080;11.960;2023-01-26T08:30:04;94923.81;;;1.32;100.00
23363;BME280;11853;48.080;11.960;2023-01-26T08:32:33;94940.13;;;1.36;100.00
23363;BME280;11853;48.080;11.960;2023-01-26T08:35:02;94935.47;;;1.27;100.00
23363;BME280;11853;48.080;11.960;2023-01-26T08:37:28;94934.63;;;1.26;100.00
23363;BME280;11853;48.080;11.960;2023-01-26T08:39:56;94942.47;;;1.26;97.31
23363;BME280;11853;48.080;11.960;2023-01-26T08:42:26;94937.72;;;1.19;98.00
23363;BME280;11853;48.080;11.960;2023-01-26T08:44:51;94938.72;;;1.16;100.00
23363;BME280;11853;48.080;11.960;2023-01-26T08:47:19;94932.69;;;1.16;97.27
23363;BME280;11853;48.080;11.960;2023-01-26T08:49:45;94932.69;;;1.16;96.16
23363;BME280;11853;48.080;11.960;2023-01-26T08:52:10;94931.16;;;0.97;97.11
23363;BME280;11853;48.080;11.960;2023-01-26T08:54:36;94926.31;;;1.05;97.81
23363;BME280;11853;48.080;11.960;2023-01-26T08:57:02;94923.72;;;0.91;99.61
23363;BME280;11853;48.080;11.960;2023-01-26T08:59:28;94922.22;;;0.87;100.00
23363;BME280;11853;48.080;11.960;2023-01-26T09:01:53;94925.94;;;0.97;100.00
23363;BME280;11853;48.080;11.960;2023-01-26T09:04:20;94923.72;;;1.05;100.00
23363;BME280;11853;48.080;11.960;2023-01-26T09:06:45;94928.03;;;1.06;100.00
23363;BME280;11853;48.080;11.960;2023-01-26T09:09:11;94925.59;;;1.18;100.00
23363;BME280;11853;48.080;11.960;2023-01-26T09:11:42;94925.41;;;1.21;100.00
23363;BME280;11853;48.080;11.960;2023-01-26T09:14:07;94929.75;;;1.20;100.00
23363;BME280;11853;48.080;11.960;2023-01-26T09:16:33;94921.84;;;1.22;100.00
23363;BME280;11853;48.080;11.960;2023-01-26T09:21:34;94936.09;;;1.45;100.00
23363;BME280;11853;48.080;11.960;2023-01-26T09:24:03;94934.69;;;1.39;100.00
23363;BME280;11853;48.080;11.960;2023-01-26T09:26:29;94933.69;;;1.42;97.04
23363;BME280;11853;48.080;11.960;2023-01-26T09:28:55;94946.69;;;1.29;98.88
23363;BME280;11853;48.080;11.960;2023-01-26T09:31:21;94946.47;;;1.32;98.91
23363;BME280;11853;48.080;11.960;2023-01-26T09:33:48;94944.78;;;1.31;99.13
23363;BME280;11853;48.080;11.960;2023-01-26T09:36:13;94940.50;;;1.30;98.87
23363;BME280;11853;48.080;11.960;2023-01-26T09:38:39;94933.63;;;1.29;99.01
23363;BME280;11853;48.080;11.960;2023-01-26T09:41:44;94943.69;;;1.35;99.19
23363;BME280;11853;48.080;11.960;2023-01-26T09:44:26;94940.69;;;1.41;98.71
23363;BME280;11853;48.080;11.960;2023-01-26T09:47:11;94951.03;;;1.43;97.41
23363;BME280;11853;48.080;11.960;2023-01-26T09:54:51;94937.50;;;1.50;93.15
23363;BME280;11853;48.080;11.960;2023-01-26T09:57:22;94945.34;;;1.36;95.41
23363;BME280;11853;48.080;11.960;2023-01-26T10:00:06;94939.28;;;1.35;95.75
23363;BME280;11853;48.080;11.960;2023-01-26T10:02:45;94934.53;;;1.28;96.57
23363;BME280;11853;48.080;11.960;2023-01-26T10:05:24;94940.50;;;1.30;97.98
23363;BME280;11853;48.080;11.960;2023-01-26T10:07:52;94937.63;;;1.34;98.05
23363;BME280;11853;48.080;11.960;2023-01-26T10:10:31;94943.88;;;1.32;96.81
23363;BME280;11853;48.080;11.960;2023-01-26T10:12:59;94932.19;;;1.38;96.75
23363;BME280;11853;48.080;11.960;2023-01-26T10:15:38;94932.66;;;1.44;95.80
23363;BME280;11853;48.080;11.960;2023-01-26T10:18:15;94928.53;;;1.40;94.76
23363;BME280;11853;48.080;11.960;2023-01-26T10:20:46;94934.44;;;1.44;94.89
23363;BME280;11853;48.080;11.960;2023-01-26T10:23:26;94919.84;;;1.40;95.27
23363;BME280;11853;48.080;11.960;2023-01-26T10:25:55;94920.34;;;1.32;97.29
23363;BME280;11853;48.080;11.960;2023-01-26T10:28:29;94917.06;;;1.28;98.45
23363;BME280;11853;48.080;11.960;2023-01-26T10:31:01;94904.88;;;1.29;98.44
23363;BME280;11853;48.080;11.960;2023-01-26T10:33:33;94918.84;;;1.42;98.77
23363;BME280;11853;48.080;11.960;2023-01-26T10:36:03;94908.19;;;1.45;98.07
23363;BME280;11853;48.080;11.960;2023-01-26T10:41:09;94902.47;;;1.53;98.50
23363;BME280;11853;48.080;11.960;2023-01-26T10:46:41;94898.41;;;1.49;96.83
23363;BME280;11853;48.080;11.960;2023-01-26T10:51:34;94899.63;;;1.43;95.91
23363;BME280;11853;48.080;11.960;2023-01-26T10:54:21;94900.06;;;1.50;97.14
23363;BME280;11853;48.080;11.960;2023-01-26T10:56:56;94898.19;;;1.52;97.62
23363;BME280;11853;48.080;11.960;2023-01-26T10:59:30;94904.25;;;1.52;97.65
23363;BME280;11853;48.080;11.960;2023-01-26T11:01:58;94897.72;;;1.45;97.88
23363;BME280;11853;48.080;11.960;2023-01-26T11:04:25;94902.13;;;1.45;98.25
23363;BME280;11853;48.080;11.960;2023-01-26T11:06:51;94892.31;;;1.48;96.94
23363;BME280;11853;48.080;11.960;2023-01-26T11:09:20;94900.34;;;1.45;97.66
23363;BME280;11853;48.080;11.960;2023-01-26T11:12:01;94904.09;;;1.41;98.84
23363;BME280;11853;48.080;11.960;2023-01-26T11:14:28;94897.38;;;1.37;99.16
23363;BME280;11853;48.080;11.960;2023-01-26T11:22:56;94895.28;;;1.56;99.29
23363;BME280;11853;48.080;11.960;2023-01-26T11:25:30;94894.44;;;1.56;98.82
23363;BME280;11853;48.080;11.960;2023-01-26T11:28:07;94894.25;;;1.59;98.28
23363;BME280;11853;48.080;11.960;2023-01-26T11:33:37;94902.84;;;1.61;96.91
23363;BME280;11853;48.080;11.960;2023-01-26T11:39:00;94886.31;;;1.61;98.42
23363;BME280;11853;48.080;11.960;2023-01-26T11:41:38;94884.81;;;1.56;98.28
23363;BME280;11853;48.080;11.960;2023-01-26T11:52:53;94872.78;;;1.54;98.50
23363;BME280;11853;48.080;11.960;2023-01-26T11:55:30;94876.91;;;1.58;98.01
23363;BME280;11853;48.080;11.960;2023-01-26T11:58:30;94876.97;;;1.56;98.26
23363;BME280;11853;48.080;11.960;2023-01-26T12:00:59;94869.94;;;1.44;98.91
23363;BME280;11853;48.080;11.960;2023-01-26T12:03:55;94872.44;;;1.46;99.11
23363;BME280;11853;48.080;11.960;2023-01-26T12:06:36;94864.78;;;1.43;100.00
23363;BME280;11853;48.080;11.960;2023-01-26T12:09:05;94862.28;;;1.41;100.00
23363;BME280;11853;48.080;11.960;2023-01-26T12:11:40;94863.91;;;1.29;100.00
23363;BME280;11853;48.080;11.960;2023-01-26T12:17:26;94859.88;;;1.38;100.00
23363;BME280;11853;48.080;11.960;2023-01-26T12:22:40;94853.88;;;1.36;100.00
23363;BME280;11853;48.080;11.960;2023-01-26T12:25:33;94857.44;;;1.35;100.00
23363;BME280;11853;48.080;11.960;2023-01-26T12:28:24;94855.91;;;1.45;100.00
23363;BME280;11853;48.080;11.960;2023-01-26T12:33:32;94855.00;;;1.46;100.00
23363;BME280;11853;48.080;11.960;2023-01-26T12:38:38;94857.53;;;1.33;100.00
23363;BME280;11853;48.080;11.960;2023-01-26T12:41:13;94858.16;;;1.37;100.00
23363;BME280;11853;48.080;11.960;2023-01-26T12:43:55;94854.44;;;1.41;99.89
23363;BME280;11853;48.080;11.960;2023-01-26T12:46:29;94856.63;;;1.34;100.00
23363;BME280;11853;48.080;11.960;2023-01-26T12:49:03;94856.91;;;1.30;100.00
23363;BME280;11853;48.080;11.960;2023-01-26T12:51:38;94843.47;;;1.22;100.00
23363;BME280;11853;48.080;11.960;2023-01-26T12:54:30;94851.03;;;1.26;100.00
23363;BME280;11853;48.080;11.960;2023-01-26T12:56:59;94853.91;;;1.22;100.00
23363;BME280;11853;48.080;11.960;2023-01-26T12:59:32;94854.75;;;1.22;99.60
23363;BME280;11853;48.080;11.960;2023-01-26T13:01:59;94859.53;;;1.16;100.00
23363;BME280;11853;48.080;11.960;2023-01-26T13:04:25;94858.50;;;1.18;100.00
23363;BME280;11853;48.080;11.960;2023-01-26T13:07:27;94856.06;;;1.29;100.00
23363;BME280;11853;48.080;11.960;2023-01-26T13:12:59;94848.78;;;1.34;100.00
23363;BME280;11853;48.080;11.960;2023-01-26T13:15:28;94849.81;;;1.32;100.00
23363;BME280;11853;48.080;11.960;2023-01-26T13:20:26;94841.56;;;1.38;100.00
23363;BME280;11853;48.080;11.960;2023-01-26T13:22:53;94841.09;;;1.31;100.00
23363;BME280;11853;48.080;11.960;2023-01-26T13:25:28;94838.31;;;1.34;100.00
23363;BME280;11853;48.080;11.960;2023-01-26T13:28:03;94836.34;;;1.38;100.00
23363;BME280;11853;48.080;11.960;2023-01-26T13:30:45;94830.13;;;1.26;100.00
23363;BME280;11853;48.080;11.960;2023-01-26T13:33:22;94832.22;;;1.34;100.00
23363;BME280;11853;48.080;11.960;2023-01-26T13:35:50;94838.00;;;1.39;100.00
23363;BME280;11853;48.080;11.960;2023-01-26T13:38:35;94829.22;;;1.40;100.00
23363;BME280;11853;48.080;11.960;2023-01-26T13:41:08;94843.06;;;1.28;100.00
23363;BME280;11853;48.080;11.960;2023-01-26T13:43:45;94846.84;;;1.24;100.00
23363;BME280;11853;48.080;11.960;2023-01-26T13:46:21;94842.25;;;1.27;100.00
23363;BME280;11853;48.080;11.960;2023-01-26T13:48:51;94839.03;;;1.37;100.00
23363;BME280;11853;48.080;11.960;2023-01-26T13:51:28;94838.13;;;1.38;100.00
23363;BME280;11853;48.080;11.960;2023-01-26T13:56:26;94837.94;;;1.41;100.00
23363;BME280;11853;48.080;11.960;2023-01-26T13:58:53;94837.72;;;1.44;100.00
23363;BME280;11853;48.080;11.960;2023-01-26T14:01:19;94844.81;;;1.42;100.00
23363;BME280;11853;48.080;11.960;2023-01-26T14:03:45;94842.75;;;1.47;100.00
23363;BME280;11853;48.080;11.960;2023-01-26T14:06:15;94835.84;;;1.46;100.00
23363;BME280;11853;48.080;11.960;2023-01-26T14:08:48;94834.09;;;1.46;100.00
23363;BME280;11853;48.080;11.960;2023-01-26T14:11:18;94837.63;;;1.45;100.00